CG Bonito — NNGB — position and weather

sailwx.info

Track history (hours):
 
Tides and Currents Weather Stations Pressure Air Temp Water Temp Dewpoint Dewpoint Depression Visibility Wind Speed Wind Dir Waves Ship Positions

CG Bonito

Last reported at 2018-Jul-13 13:40 UTC. Time now 2018-Jul-19 13:18 UTC.
Position N 41°04' W 071°56'.

Length 26 m; draft 1.7 m.

Type: Law enforcement. MMSI: 366999656.

Date/timePositionNaut miles runAvg speedWind from/ knotsBaromVisibWave heightAir tempDewpointWater temp
2018-Jul-13 13:40N 41°04' W 071°56'0 0.0
2018-Jul-13 13:22N 41°04' W 071°56'0 0.0
2018-Jul-13 12:56N 41°04' W 071°56'0 0.0
2018-Jul-13 12:17N 41°04' W 071°56'0 0.0
2018-Jul-13 11:59N 41°04' W 071°56'0 0.0
2018-Jul-13 10:31N 41°04' W 071°56'0 0.0
2018-Jul-13 10:29N 41°04' W 071°56'0 0.0
2018-Jul-13 09:59N 41°04' W 071°56'0 0.0
2018-Jul-13 09:01N 41°04' W 071°56'0 0.0
2018-Jul-13 08:59N 41°04' W 071°56'0 0.0
2018-Jul-13 08:25N 41°04' W 071°56'0 0.0
2018-Jul-13 07:59N 41°04' W 071°56'  
2018-Jul-07 21:13N 41°10' W 072°21'417.6
2018-Jul-07 21:00N 41°09' W 072°26'7315.6
2018-Jul-07 16:21N 40°46' W 073°57'412.8
2018-Jul-07 16:01N 40°42' W 074°00'815.1
2018-Jul-07 15:29N 40°34' W 074°02'1 0.8
2018-Jul-07 13:54N 40°33' W 074°02'614.4
2018-Jul-07 13:30N 40°38' W 074°03'714.6
2018-Jul-07 13:00N 40°46' W 074°01'  
2018-Jul-05 03:18N 40°46' W 074°00'412.6
2018-Jul-05 03:00N 40°42' W 074°02'4 6.9
2018-Jul-05 02:30N 40°44' W 073°58'0 0.7
2018-Jul-05 02:00N 40°45' W 073°58'0 0.0
2018-Jul-05 01:30N 40°45' W 073°58'0 0.1
2018-Jul-05 01:00N 40°45' W 073°58'0 0.1
2018-Jul-05 00:30N 40°45' W 073°58'0 0.1
2018-Jul-05 00:00N 40°45' W 073°58'0 0.0
2018-Jul-04 23:30N 40°45' W 073°58'0 0.0
2018-Jul-04 23:00N 40°45' W 073°58'0 0.0
2018-Jul-04 22:30N 40°45' W 073°58'0 0.1
2018-Jul-04 22:00N 40°45' W 073°58'0 1.0
2018-Jul-04 21:30N 40°44' W 073°58'0 0.7
2018-Jul-04 21:00N 40°44' W 073°58'0 0.0
2018-Jul-04 20:30N 40°44' W 073°58'1 1.7
2018-Jul-04 20:00N 40°43' W 073°58'2 4.9
2018-Jul-04 19:30N 40°43' W 074°01'8 0.8
2018-Jul-04 09:19N 40°51' W 073°58'0 0.0
2018-Jul-04 08:59N 40°51' W 073°58'0 0.0
2018-Jul-04 08:20N 40°51' W 073°58'7 0.7
2018-Jul-03 22:41N 40°44' W 074°01'211.5
2018-Jul-03 22:30N 40°43' W 074°02'0 0.3
2018-Jul-03 21:58N 40°43' W 074°03'0 0.0
2018-Jul-03 21:27N 40°43' W 074°03'1 1.2
2018-Jul-03 21:00N 40°43' W 074°02'3 6.7
2018-Jul-03 20:29N 40°40' W 074°05'0 0.0
2018-Jul-03 19:59N 40°40' W 074°05'0 0.0
2018-Jul-03 19:29N 40°40' W 074°05'0 0.0
2018-Jul-03 18:59N 40°40' W 074°05'0 0.0
2018-Jul-03 18:29N 40°40' W 074°05'0 0.0
2018-Jul-03 17:55N 40°40' W 074°05'0 0.0
2018-Jul-03 17:29N 40°40' W 074°05'0 0.0
2018-Jul-03 16:59N 40°40' W 074°05'0 0.0
2018-Jul-03 16:26N 40°40' W 074°05'0 0.0
2018-Jul-03 15:56N 40°40' W 074°05'0 0.0
2018-Jul-03 15:29N 40°40' W 074°05'1 2.6
2018-Jul-03 15:00N 40°40' W 074°04'  
Track history (hours):
 
Tides and Currents Weather Stations Pressure Air Temp Water Temp Dewpoint Dewpoint Depression Visibility Wind Speed Wind Dir Waves Ship Positions

CG Bonito

Last reported at 2018-Jul-13 13:40 UTC. Time now 2018-Jul-19 13:18 UTC.
Position N 41°04' W 071°56'.

Length 26 m; draft 1.7 m.

Type: Law enforcement. MMSI: 366999656.

Date/timePositionNaut miles runAvg speedWind from/ knotsBaromVisibWave heightAir tempDewpointWater temp
2018-Jul-13 13:40N 41°04' W 071°56'0 0.0
2018-Jul-13 13:22N 41°04' W 071°56'0 0.0
2018-Jul-13 12:56N 41°04' W 071°56'0 0.0
2018-Jul-13 12:17N 41°04' W 071°56'0 0.0
2018-Jul-13 11:59N 41°04' W 071°56'0 0.0
2018-Jul-13 10:31N 41°04' W 071°56'0 0.0
2018-Jul-13 10:29N 41°04' W 071°56'0 0.0
2018-Jul-13 09:59N 41°04' W 071°56'0 0.0
2018-Jul-13 09:01N 41°04' W 071°56'0 0.0
2018-Jul-13 08:59N 41°04' W 071°56'0 0.0
2018-Jul-13 08:25N 41°04' W 071°56'0 0.0
2018-Jul-13 07:59N 41°04' W 071°56'  
2018-Jul-07 21:13N 41°10' W 072°21'417.6
2018-Jul-07 21:00N 41°09' W 072°26'7315.6
2018-Jul-07 16:21N 40°46' W 073°57'412.8
2018-Jul-07 16:01N 40°42' W 074°00'815.1
2018-Jul-07 15:29N 40°34' W 074°02'1 0.8
2018-Jul-07 13:54N 40°33' W 074°02'614.4
2018-Jul-07 13:30N 40°38' W 074°03'714.6
2018-Jul-07 13:00N 40°46' W 074°01'  
2018-Jul-05 03:18N 40°46' W 074°00'412.6
2018-Jul-05 03:00N 40°42' W 074°02'4 6.9
2018-Jul-05 02:30N 40°44' W 073°58'0 0.7
2018-Jul-05 02:00N 40°45' W 073°58'0 0.0
2018-Jul-05 01:30N 40°45' W 073°58'0 0.1
2018-Jul-05 01:00N 40°45' W 073°58'0 0.1
2018-Jul-05 00:30N 40°45' W 073°58'0 0.1
2018-Jul-05 00:00N 40°45' W 073°58'0 0.0
2018-Jul-04 23:30N 40°45' W 073°58'0 0.0
2018-Jul-04 23:00N 40°45' W 073°58'0 0.0
2018-Jul-04 22:30N 40°45' W 073°58'0 0.1
2018-Jul-04 22:00N 40°45' W 073°58'0 1.0
2018-Jul-04 21:30N 40°44' W 073°58'0 0.7
2018-Jul-04 21:00N 40°44' W 073°58'0 0.0
2018-Jul-04 20:30N 40°44' W 073°58'1 1.7
2018-Jul-04 20:00N 40°43' W 073°58'2 4.9
2018-Jul-04 19:30N 40°43' W 074°01'8 0.8
2018-Jul-04 09:19N 40°51' W 073°58'0 0.0
2018-Jul-04 08:59N 40°51' W 073°58'0 0.0
2018-Jul-04 08:20N 40°51' W 073°58'7 0.7
2018-Jul-03 22:41N 40°44' W 074°01'211.5
2018-Jul-03 22:30N 40°43' W 074°02'0 0.3
2018-Jul-03 21:58N 40°43' W 074°03'0 0.0
2018-Jul-03 21:27N 40°43' W 074°03'1 1.2
2018-Jul-03 21:00N 40°43' W 074°02'3 6.7
2018-Jul-03 20:29N 40°40' W 074°05'0 0.0
2018-Jul-03 19:59N 40°40' W 074°05'0 0.0
2018-Jul-03 19:29N 40°40' W 074°05'0 0.0
2018-Jul-03 18:59N 40°40' W 074°05'0 0.0
2018-Jul-03 18:29N 40°40' W 074°05'0 0.0
2018-Jul-03 17:55N 40°40' W 074°05'0 0.0
2018-Jul-03 17:29N 40°40' W 074°05'0 0.0
2018-Jul-03 16:59N 40°40' W 074°05'0 0.0
2018-Jul-03 16:26N 40°40' W 074°05'0 0.0
2018-Jul-03 15:56N 40°40' W 074°05'0 0.0
2018-Jul-03 15:29N 40°40' W 074°05'1 2.6
2018-Jul-03 15:00N 40°40' W 074°04'  

Dump ship's entire track history